Time;durP1;ratioP1;P1;durP2;ratioP2;P2;SDS_P1;SDS_P2;PMS_P1;PMS_P2;Temp;Humidity;BMP_temperature;BMP_pressure;BME280_temperature;BME280_humidity;BME280_pressure;Samples;Min_cycle;Max_cycle;Signal;HPM_P1;HPM_P2
2022/09/29 00:00:31;;;;;;;23.30;9.80;;;;;;;7.55;87.02;99164.39;110757;1230;139017;-73
2022/09/29 00:02:56;;;;;;;14.30;9.00;;;;;;;7.56;87.05;99164.17;110871;1230;97630;-75
2022/09/29 00:05:22;;;;;;;16.50;10.10;;;;;;;7.57;87.06;99162.69;110764;1230;138670;-73
2022/09/29 00:07:47;;;;;;;15.50;9.60;;;;;;;7.57;87.05;99160.73;110929;1230;97605;-73
2022/09/29 00:10:12;;;;;;;16.60;10.50;;;;;;;7.57;87.18;99164.27;110871;1230;97473;-74
2022/09/29 00:12:38;;;;;;;15.60;9.70;;;;;;;7.58;87.14;99165.46;110795;1230;138479;-73
2022/09/29 00:15:04;;;;;;;15.30;10.20;;;;;;;7.57;87.09;99168.19;110833;1230;97604;-72
2022/09/29 00:17:29;;;;;;;16.30;10.60;;;;;;;7.58;87.32;99164.42;110741;1230;138542;-73
2022/09/29 00:19:55;;;;;;;17.00;10.30;;;;;;;7.60;87.32;99166.44;110892;1230;97810;-73
2022/09/29 00:22:20;;;;;;;16.80;10.60;;;;;;;7.61;87.29;99168.16;110796;1230;99044;-73
2022/09/29 00:24:46;;;;;;;17.90;11.30;;;;;;;7.61;87.29;99170.98;110726;1230;138382;-74
2022/09/29 00:27:14;;;;;;;17.10;10.20;;;;;;;7.61;87.26;99171.66;110930;1230;97723;-74
2022/09/29 00:29:40;;;;;;;17.50;10.00;;;;;;;7.62;87.42;99173.25;110670;1230;139486;-74
2022/09/29 00:32:05;;;;;;;15.80;10.30;;;;;;;7.63;87.44;99172.27;110789;1230;97705;-73
2022/09/29 00:34:30;;;;;;;25.40;11.70;;;;;;;7.64;87.42;99175.44;110913;1230;97602;-75
2022/09/29 00:36:55;;;;;;;20.80;10.50;;;;;;;7.65;87.37;99169.35;110639;1232;138684;-73
2022/09/29 00:39:20;;;;;;;18.80;10.50;;;;;;;7.64;87.43;99170.98;110927;1230;97689;-74
2022/09/29 00:41:46;;;;;;;16.60;10.90;;;;;;;7.65;87.50;99171.50;110726;1230;139630;-73
2022/09/29 00:44:11;;;;;;;15.50;11.00;;;;;;;7.65;87.54;99172.89;110891;1230;97664;-75
2022/09/29 00:46:48;;;;;;;13.00;8.90;;;;;;;7.66;87.61;99177.82;110839;1230;97608;-75
2022/09/29 00:49:22;;;;;;;15.90;9.90;;;;;;;7.67;87.57;99177.58;110856;1230;97599;-73
2022/09/29 00:51:53;;;;;;;18.00;9.90;;;;;;;7.68;87.61;99175.59;110886;1230;97685;-74
2022/09/29 00:54:19;;;;;;;14.00;9.60;;;;;;;7.69;87.53;99178.02;110737;1230;138810;-73
2022/09/29 00:56:45;;;;;;;12.90;9.90;;;;;;;7.69;87.59;99183.33;110945;1230;97725;-76
2022/09/29 00:59:16;;;;;;;14.80;9.80;;;;;;;7.70;87.64;99177.77;110710;1230;138453;-75
2022/09/29 01:01:42;;;;;;;17.00;10.80;;;;;;;7.71;87.70;99180.56;110822;1230;98048;-74
2022/09/29 01:04:15;;;;;;;18.40;9.70;;;;;;;7.71;87.70;99178.96;110847;1230;97599;-75
2022/09/29 01:06:46;;;;;;;18.20;10.10;;;;;;;7.71;87.71;99176.83;110746;1230;138945;-74
2022/09/29 01:09:18;;;;;;;17.00;9.80;;;;;;;7.71;87.73;99178.58;110878;1230;100056;-74
2022/09/29 01:11:43;;;;;;;15.70;9.40;;;;;;;7.71;87.70;99180.01;110678;1230;141300;-73
2022/09/29 01:14:10;;;;;;;16.20;9.90;;;;;;;7.71;87.73;99174.68;110799;1230;97661;-75
2022/09/29 01:16:38;;;;;;;12.90;9.50;;;;;;;7.72;87.78;99180.34;110935;1230;97589;-73
2022/09/29 01:19:08;;;;;;;13.80;9.60;;;;;;;7.71;87.86;99180.56;110685;1230;139255;-74
2022/09/29 01:21:47;;;;;;;13.80;9.30;;;;;;;7.71;87.85;99183.60;110851;1229;107187;-72
2022/09/29 01:24:55;;;;;;;14.70;10.30;;;;;;;7.71;87.87;99188.55;110724;1230;140356;-74
2022/09/29 01:28:08;;;;;;;16.80;10.20;;;;;;;7.72;87.81;99189.90;110862;1230;97737;-72
2022/09/29 01:30:39;;;;;;;26.30;11.70;;;;;;;7.73;87.99;99194.48;110742;1230;138530;-71
2022/09/29 01:33:19;;;;;;;;;;;;;;;7.74;87.95;99193.02;110833;1230;102243;-71
2022/09/29 01:35:59;;;;;;;16.80;11.30;;;;;;;7.74;88.05;99194.09;110627;1230;124770;-72
2022/09/29 01:38:35;;;;;;;16.90;11.60;;;;;;;7.75;88.05;99196.20;110822;1230;97630;-72
2022/09/29 01:41:20;;;;;;;17.70;12.10;;;;;;;7.76;87.99;99195.04;110701;1230;138943;-73
2022/09/29 01:43:57;;;;;;;19.10;12.80;;;;;;;7.77;87.97;99198.02;110844;1230;110694;-72
2022/09/29 01:46:27;;;;;;;17.60;12.10;;;;;;;7.76;87.96;99201.06;110860;1230;99649;-72
2022/09/29 01:48:55;;;;;;;19.90;12.90;;;;;;;7.75;87.95;99200.44;110679;1230;138585;-72
2022/09/29 01:51:28;;;;;;;20.50;12.20;;;;;;;7.75;87.96;99198.27;110811;1230;97679;-72
2022/09/29 01:53:57;;;;;;;25.80;14.10;;;;;;;7.76;88.07;99203.55;110668;1230;139422;-73
2022/09/29 01:56:50;;;;;;;22.00;13.70;;;;;;;7.76;88.15;99204.64;110896;1230;113477;-73
2022/09/29 01:59:44;;;;;;;20.90;13.90;;;;;;;7.76;88.19;99212.98;110667;1230;140458;-71
2022/09/29 02:02:15;;;;;;;25.90;15.50;;;;;;;7.76;88.20;99213.02;110862;1230;108793;-71
2022/09/29 02:04:49;;;;;;;22.00;14.40;;;;;;;7.76;88.20;99217.80;110837;1230;99034;-73
2022/09/29 02:07:24;;;;;;;22.20;14.30;;;;;;;7.75;88.32;99216.23;110801;1230;138784;-75
2022/09/29 02:09:56;;;;;;;27.40;16.10;;;;;;;7.76;88.31;99217.45;110856;1230;111555;-72
2022/09/29 02:12:26;;;;;;;23.80;15.10;;;;;;;7.75;88.30;99217.30;110764;1230;138840;-74
2022/09/29 02:14:54;;;;;;;24.40;15.80;;;;;;;7.75;88.33;99218.22;110802;1230;108274;-73
2022/09/29 02:17:35;;;;;;;27.60;16.90;;;;;;;7.74;88.47;99220.21;110742;1230;138737;-75
2022/09/29 02:20:02;;;;;;;25.90;15.80;;;;;;;7.72;88.69;99218.90;111117;1230;97672;-71
2022/09/29 02:22:27;;;;;;;30.50;18.90;;;;;;;7.72;88.55;99221.23;111004;1230;98047;-73
2022/09/29 02:24:57;;;;;;;28.60;17.80;;;;;;;7.72;88.55;99222.63;110763;1229;139123;-73
2022/09/29 02:27:22;;;;;;;28.60;17.40;;;;;;;7.73;88.60;99227.91;110743;1230;97623;-72
2022/09/29 02:29:50;;;;;;;25.10;16.40;;;;;;;7.74;88.58;99230.89;110717;1230;138992;-72
2022/09/29 02:32:15;;;;;;;25.30;17.20;;;;;;;7.76;88.67;99232.04;111014;1229;97719;-74
2022/09/29 02:34:45;;;;;;;27.90;16.70;;;;;;;7.78;88.72;99237.63;110888;1230;99036;-72
2022/09/29 02:37:42;;;;;;;27.80;16.60;;;;;;;7.77;88.70;99241.41;110710;1229;138292;-73
2022/09/29 02:40:28;;;;;;;29.50;17.60;;;;;;;7.77;88.66;99238.89;110858;1230;97596;-74
2022/09/29 02:43:27;;;;;;;26.10;15.90;;;;;;;7.77;88.68;99239.42;110744;1230;139369;-75
2022/09/29 02:46:19;;;;;;;26.90;16.90;;;;;;;7.79;88.75;99242.19;110768;1230;99642;-72
2022/09/29 02:49:00;;;;;;;27.10;16.30;;;;;;;7.77;88.64;99242.79;110823;1229;138650;-74
2022/09/29 02:51:30;;;;;;;;;;;;;;;7.77;88.64;99247.28;110938;1230;97693;-75
2022/09/29 02:54:31;;;;;;;27.40;17.30;;;;;;;7.74;88.66;99249.92;110784;1230;124531;-74
2022/09/29 02:57:04;;;;;;;32.30;17.10;;;;;;;7.74;88.77;99253.27;110816;1230;111767;-74
2022/09/29 02:59:44;;;;;;;27.60;16.60;;;;;;;7.74;88.77;99253.28;110762;1230;141759;-72
2022/09/29 03:02:09;;;;;;;28.80;16.90;;;;;;;7.75;88.79;99250.92;110859;1230;108843;-75
2022/09/29 03:04:34;;;;;;;27.60;16.30;;;;;;;7.75;88.83;99252.72;110853;1230;97603;-73
2022/09/29 03:06:59;;;;;;;26.30;15.50;;;;;;;7.74;88.80;99250.09;110796;1229;139152;-75
2022/09/29 03:09:24;;;;;;;30.30;16.50;;;;;;;7.75;88.80;99255.17;110925;1230;97612;-72
2022/09/29 03:11:50;;;;;;;24.60;15.20;;;;;;;7.76;88.87;99253.17;110840;1230;138777;-72
2022/09/29 03:14:15;;;;;;;24.70;15.80;;;;;;;7.76;88.89;99255.48;110927;1229;97615;-75
2022/09/29 03:16:41;;;;;;;28.20;16.10;;;;;;;7.75;88.80;99253.58;110883;1230;97772;-73
2022/09/29 03:19:07;;;;;;;28.60;16.20;;;;;;;7.75;88.82;99255.38;110749;1230;138873;-73
2022/09/29 03:21:32;;;;;;;25.30;16.70;;;;;;;7.76;88.95;99259.92;110851;1230;97718;-74
2022/09/29 03:23:57;;;;;;;26.50;15.90;;;;;;;7.77;88.90;99258.83;110834;1230;138577;-76
2022/09/29 03:26:23;;;;;;;23.30;14.90;;;;;;;7.77;88.91;99259.86;110908;1229;97699;-75
2022/09/29 03:28:50;;;;;;;22.70;14.90;;;;;;;7.77;88.88;99264.85;110801;1230;97647;-73
2022/09/29 03:31:15;;;;;;;21.40;15.30;;;;;;;7.76;88.87;99264.72;110827;1230;139036;-74
2022/09/29 03:33:40;;;;;;;20.80;13.90;;;;;;;7.75;88.78;99269.75;110918;1229;97736;-73
2022/09/29 03:36:07;;;;;;;21.60;12.90;;;;;;;7.74;88.91;99273.89;110804;1230;138993;-73
2022/09/29 03:38:33;;;;;;;20.80;13.30;;;;;;;7.71;88.83;99276.75;110901;1230;97753;-74
2022/09/29 03:40:58;;;;;;;22.10;13.60;;;;;;;7.67;89.03;99282.14;110816;1230;138746;-75
2022/09/29 03:43:24;;;;;;;23.00;14.00;;;;;;;7.65;89.07;99285.63;110947;1229;97722;-74
2022/09/29 03:45:51;;;;;;;17.80;11.40;;;;;;;7.63;89.19;99283.93;110839;1230;96499;-74
2022/09/29 03:48:17;;;;;;;22.60;13.80;;;;;;;7.60;89.20;99283.58;110761;1230;139097;-74
2022/09/29 03:50:47;;;;;;;27.30;16.20;;;;;;;7.60;89.19;99283.77;110912;1230;97584;-74
2022/09/29 03:53:13;;;;;;;23.40;14.20;;;;;;;7.61;89.21;99281.23;110883;1230;139170;-75
2022/09/29 03:55:39;;;;;;;27.50;15.90;;;;;;;7.60;89.15;99281.98;110806;1230;97582;-74
2022/09/29 03:58:05;;;;;;;22.80;14.70;;;;;;;7.58;89.19;99279.04;110923;1229;97701;-70
2022/09/29 04:00:30;;;;;;;30.40;16.70;;;;;;;7.59;89.22;99278.48;110760;1229;139271;-75
2022/09/29 04:02:56;;;;;;;25.00;14.90;;;;;;;7.59;89.26;99280.05;110814;1230;97365;-74
2022/09/29 04:05:21;;;;;;;33.10;16.50;;;;;;;7.59;89.21;99285.04;110819;1229;139165;-76
2022/09/29 04:07:46;;;;;;;27.30;17.50;;;;;;;7.58;89.18;99292.36;110839;1229;98142;-72
2022/09/29 04:10:12;;;;;;;30.00;18.20;;;;;;;7.57;89.28;99288.52;110960;1229;97621;-75
2022/09/29 04:12:38;;;;;;;27.20;18.00;;;;;;;7.58;89.26;99298.27;110759;1229;139193;-74
2022/09/29 04:15:03;;;;;;;36.00;19.00;;;;;;;7.58;89.22;99304.64;110879;1230;97608;-76
2022/09/29 04:17:29;;;;;;;27.30;17.30;;;;;;;7.56;89.22;99308.50;110820;1229;138805;-76
2022/09/29 04:19:54;;;;;;;26.50;16.80;;;;;;;7.55;89.19;99314.26;110831;1230;97571;-74
2022/09/29 04:22:19;;;;;;;37.10;17.30;;;;;;;7.53;89.17;99315.05;110971;1230;97670;-76
2022/09/29 04:24:47;;;;;;;31.00;18.10;;;;;;;7.54;89.13;99313.59;110808;1230;138845;-73
2022/09/29 04:27:12;;;;;;;30.10;17.50;;;;;;;7.56;89.20;99320.06;110911;1229;97431;-74
2022/09/29 04:29:37;;;;;;;33.60;18.80;;;;;;;7.56;89.22;99319.36;110792;1229;138739;-75
2022/09/29 04:32:04;;;;;;;32.70;16.80;;;;;;;7.57;89.12;99322.69;110915;1230;97627;-75
2022/09/29 04:34:30;;;;;;;31.40;18.60;;;;;;;7.56;89.07;99329.11;110820;1230;98593;-74
2022/09/29 04:36:55;;;;;;;28.00;17.20;;;;;;;7.54;89.14;99327.10;110710;1230;138798;-74
2022/09/29 04:39:21;;;;;;;28.40;16.70;;;;;;;7.56;89.17;99329.13;111003;1230;96867;-76
2022/09/29 04:41:46;;;;;;;29.90;18.10;;;;;;;7.57;89.14;99335.64;110744;1230;138532;-77
2022/09/29 04:44:11;;;;;;;34.40;18.10;;;;;;;7.57;89.13;99338.14;110968;1229;97712;-75
2022/09/29 04:46:37;;;;;;;36.00;17.80;;;;;;;7.58;89.11;99340.37;110908;1230;97695;-72
2022/09/29 04:49:02;;;;;;;37.80;20.00;;;;;;;7.56;89.04;99337.31;110767;1230;138502;-74
2022/09/29 04:51:27;;;;;;;28.20;17.30;;;;;;;7.56;89.08;99343.16;110943;1230;96084;-73
2022/09/29 04:53:52;;;;;;;34.30;19.00;;;;;;;7.56;88.99;99344.94;110695;1230;138594;-73
2022/09/29 04:56:18;;;;;;;26.10;15.00;;;;;;;7.54;88.88;99346.27;110922;1230;97599;-76
2022/09/29 04:58:43;;;;;;;30.20;16.30;;;;;;;7.53;88.90;99350.23;110887;1230;100924;-73
2022/09/29 05:01:12;;;;;;;30.10;17.00;;;;;;;7.52;88.90;99357.03;110762;1230;138650;-74
2022/09/29 05:03:38;;;;;;;25.60;15.30;;;;;;;7.51;88.89;99354.95;110923;1230;111933;-72
2022/09/29 05:06:03;;;;;;;26.50;15.50;;;;;;;7.51;88.88;99349.99;110722;1230;139690;-73
2022/09/29 05:08:28;;;;;;;28.20;16.20;;;;;;;7.51;89.00;99351.25;110921;1229;98349;-73
2022/09/29 05:10:54;;;;;;;28.30;16.90;;;;;;;7.51;88.88;99352.81;110625;1230;139265;-74
2022/09/29 05:13:19;;;;;;;23.60;14.70;;;;;;;7.51;88.92;99356.20;110937;1230;98319;-75
2022/09/29 05:15:44;;;;;;;27.90;16.50;;;;;;;7.51;88.95;99358.01;110841;1230;97596;-75
2022/09/29 05:18:09;;;;;;;27.30;16.20;;;;;;;7.50;88.86;99355.87;110739;1230;138437;-74
2022/09/29 05:20:34;;;;;;;32.20;16.90;;;;;;;7.49;88.90;99356.64;110921;1230;97605;-75
2022/09/29 05:23:00;;;;;;;29.70;16.00;;;;;;;7.48;88.88;99356.68;110707;1230;138720;-75
2022/09/29 05:25:26;;;;;;;32.80;17.00;;;;;;;7.49;88.94;99361.61;110916;1229;97731;-75
2022/09/29 05:27:52;;;;;;;34.40;16.30;;;;;;;7.49;88.86;99357.90;111038;1230;97680;-73
2022/09/29 05:30:17;;;;;;;28.40;17.50;;;;;;;7.49;88.81;99358.81;110790;1230;138807;-75
2022/09/29 05:32:43;;;;;;;34.20;17.80;;;;;;;7.48;88.84;99359.71;110882;1230;97747;-74
2022/09/29 05:35:08;;;;;;;32.20;18.40;;;;;;;7.51;88.88;99359.06;110714;1229;138964;-75
2022/09/29 05:37:33;;;;;;;31.20;17.40;;;;;;;7.49;88.77;99363.93;110913;1229;96970;-73
2022/09/29 05:39:59;;;;;;;34.10;18.10;;;;;;;7.48;88.86;99368.26;110895;1230;98657;-75
2022/09/29 05:42:24;;;;;;;32.40;18.00;;;;;;;7.50;88.81;99366.22;110636;1230;138764;-73
2022/09/29 05:44:50;;;;;;;33.60;18.10;;;;;;;7.52;88.85;99371.30;110948;1230;97712;-74
2022/09/29 05:47:15;;;;;;;31.60;15.00;;;;;;;7.53;88.73;99374.27;110768;1230;140142;-74
2022/09/29 05:49:41;;;;;;;30.90;16.40;;;;;;;7.55;88.78;99378.23;110933;1229;97713;-73
2022/09/29 05:52:06;;;;;;;33.20;17.40;;;;;;;7.57;88.68;99378.14;110879;1229;97690;-74
2022/09/29 05:54:31;;;;;;;30.50;17.00;;;;;;;7.52;88.56;99373.77;110800;1229;138432;-75
2022/09/29 05:56:57;;;;;;;35.90;18.30;;;;;;;7.49;88.67;99372.10;110934;1229;97721;-72
2022/09/29 05:59:22;;;;;;;35.20;18.40;;;;;;;7.52;88.80;99375.18;110784;1229;139239;-73
2022/09/29 06:01:47;;;;;;;32.30;17.50;;;;;;;7.57;88.90;99373.50;110925;1229;97627;-70
2022/09/29 06:04:12;;;;;;;29.30;16.70;;;;;;;7.63;89.03;99375.49;110914;1229;98653;-73
2022/09/29 06:06:39;;;;;;;36.00;17.10;;;;;;;7.68;88.88;99376.46;110848;1230;139087;-74
2022/09/29 06:09:05;;;;;;;32.70;17.50;;;;;;;7.71;88.85;99375.63;110853;1230;97734;-74
2022/09/29 06:11:30;;;;;;;27.20;16.00;;;;;;;7.69;88.71;99375.70;110946;1229;138662;-72
2022/09/29 06:13:56;;;;;;;28.60;17.00;;;;;;;7.70;88.84;99375.87;110930;1230;97722;-73
2022/09/29 06:16:25;;;;;;;32.70;18.50;;;;;;;7.71;88.80;99373.84;110930;1229;107749;-73
2022/09/29 06:18:51;;;;;;;31.20;17.40;;;;;;;7.74;88.84;99377.77;110833;1230;139150;-75
2022/09/29 06:21:20;;;;;;;28.80;17.70;;;;;;;7.74;88.78;99374.38;111003;1229;97712;-77
2022/09/29 06:23:46;;;;;;;29.70;16.70;;;;;;;7.74;88.82;99380.41;110837;1229;138988;-77
2022/09/29 06:26:14;;;;;;;25.00;15.10;;;;;;;7.76;88.74;99381.37;110949;1229;97706;-78
2022/09/29 06:28:39;;;;;;;31.50;16.90;;;;;;;7.81;88.83;99378.98;110945;1229;97604;-77
2022/09/29 06:31:10;;;;;;;29.30;17.50;;;;;;;7.84;88.78;99382.88;110854;1229;139275;-80
2022/09/29 06:33:35;;;;;;;29.00;16.50;;;;;;;7.88;88.76;99383.06;110940;1230;111312;-80
2022/09/29 06:38:54;;;;;;;24.10;14.50;;;;;;;7.88;88.62;99388.36;110856;1229;107266;-77
2022/09/29 06:41:19;;;;;;;27.70;16.00;;;;;;;7.84;88.56;99386.27;110765;1229;138751;-79
2022/09/29 06:43:45;;;;;;;28.50;15.30;;;;;;;7.85;88.69;99388.88;110887;1230;97634;-79
2022/09/29 06:46:10;;;;;;;26.30;16.30;;;;;;;7.84;88.59;99385.58;110818;1230;97603;-78
2022/09/29 06:48:36;;;;;;;34.10;17.20;;;;;;;7.85;88.63;99387.82;110849;1229;138573;-79
2022/09/29 06:51:05;;;;;;;31.40;16.20;;;;;;;7.89;88.71;99384.98;110791;1230;97776;-80
2022/09/29 06:53:30;;;;;;;27.10;15.70;;;;;;;7.94;88.71;99385.20;110746;1230;141622;-75
2022/09/29 06:55:55;;;;;;;29.30;16.50;;;;;;;8.01;88.68;99391.42;110942;1229;100011;-77
2022/09/29 06:58:24;;;;;;;29.30;16.20;;;;;;;8.06;88.69;99391.52;110953;1229;97606;-76
2022/09/29 07:00:49;;;;;;;30.30;17.10;;;;;;;8.11;88.68;99393.02;110741;1229;139127;-72
2022/09/29 07:03:15;;;;;;;27.70;17.00;;;;;;;8.16;88.63;99398.98;110830;1230;97624;-78
2022/09/29 07:05:40;;;;;;;28.90;16.40;;;;;;;8.21;88.61;99399.59;110783;1230;139085;-79
2022/09/29 07:08:06;;;;;;;28.70;17.20;;;;;;;8.25;88.53;99403.50;110847;1229;98237;-79
2022/09/29 07:10:31;;;;;;;29.10;15.60;;;;;;;8.20;88.39;99408.72;110935;1230;102294;-75
2022/09/29 07:12:56;;;;;;;29.30;16.30;;;;;;;8.20;88.37;99411.80;110814;1230;139006;-74
2022/09/29 07:15:30;;;;;;;33.00;17.30;;;;;;;8.23;88.48;99413.40;110873;1229;97609;-75
2022/09/29 07:17:56;;;;;;;32.50;17.00;;;;;;;8.29;88.43;99417.17;110673;1230;139219;-76
2022/09/29 07:20:21;;;;;;;32.10;16.70;;;;;;;8.35;88.48;99419.00;110799;1230;97623;-74
2022/09/29 07:22:46;;;;;;;38.00;17.30;;;;;;;8.42;88.53;99421.48;110898;1229;97555;-75
2022/09/29 07:25:11;;;;;;;34.00;17.50;;;;;;;8.49;88.41;99424.67;110793;1229;139757;-73
2022/09/29 07:27:37;;;;;;;31.80;16.70;;;;;;;8.54;88.43;99430.45;110889;1229;99153;-74
2022/09/29 07:30:03;;;;;;;24.40;15.40;;;;;;;8.60;88.21;99431.69;110759;1230;138696;-73
2022/09/29 07:32:31;;;;;;;25.60;15.80;;;;;;;8.62;88.11;99431.77;110877;1230;99122;-73
2022/09/29 07:34:56;;;;;;;31.70;17.50;;;;;;;8.67;88.24;99432.91;110760;1230;140880;-77
2022/09/29 07:37:21;;;;;;;25.90;16.20;;;;;;;8.74;88.16;99434.12;110837;1230;97689;-76
2022/09/29 07:39:47;;;;;;;26.30;16.70;;;;;;;8.84;88.28;99434.11;110846;1230;97606;-73
2022/09/29 07:42:12;;;;;;;27.40;16.50;;;;;;;8.95;88.22;99436.00;110697;1230;138390;-72
2022/09/29 07:44:37;;;;;;;26.20;17.00;;;;;;;9.03;88.11;99434.65;110925;1230;98360;-73
2022/09/29 07:47:02;;;;;;;27.60;16.80;;;;;;;9.05;88.00;99434.67;110781;1230;141512;-72
2022/09/29 07:49:27;;;;;;;25.60;16.40;;;;;;;9.11;87.94;99433.83;111015;1229;98117;-73
2022/09/29 07:51:53;;;;;;;31.30;16.90;;;;;;;9.16;87.82;99432.13;110908;1229;97697;-72
2022/09/29 07:54:18;;;;;;;23.40;14.40;;;;;;;9.23;88.00;99430.81;110827;1228;140475;-75
2022/09/29 07:56:43;;;;;;;22.50;13.90;;;;;;;9.32;87.87;99431.92;110875;1230;97634;-76
2022/09/29 07:59:10;;;;;;;20.60;13.60;;;;;;;9.38;87.89;99436.92;110706;1230;139120;-78
2022/09/29 08:01:35;;;;;;;27.20;15.60;;;;;;;9.37;87.67;99438.73;110889;1230;97705;-75
2022/09/29 08:04:01;;;;;;;27.20;15.00;;;;;;;9.38;87.71;99443.52;110823;1229;97786;-77
2022/09/29 08:06:27;;;;;;;28.50;12.30;;;;;;;9.47;87.85;99443.88;110806;1229;138568;-76
2022/09/29 08:08:53;;;;;;;20.80;11.80;;;;;;;9.57;87.73;99447.08;110925;1230;96524;-77
2022/09/29 08:11:19;;;;;;;21.00;10.90;;;;;;;9.60;87.50;99449.58;110688;1230;138760;-77
2022/09/29 08:13:46;;;;;;;16.20;11.10;;;;;;;9.59;87.45;99450.14;110776;1230;96037;-75
2022/09/29 08:16:13;;;;;;;17.90;11.20;;;;;;;9.58;87.22;99449.66;110884;1230;97705;-77
2022/09/29 08:18:40;;;;;;;21.60;11.30;;;;;;;9.59;87.20;99450.66;110823;1229;139579;-77
2022/09/29 08:21:06;;;;;;;18.30;11.30;;;;;;;9.64;87.24;99450.95;110897;1229;98204;-76
2022/09/29 08:23:37;;;;;;;19.90;11.30;;;;;;;9.67;87.06;99453.63;110802;1229;139384;-77
2022/09/29 08:26:05;;;;;;;16.00;10.00;;;;;;;9.72;87.12;99454.54;110796;1230;111421;-74
2022/09/29 08:28:32;;;;;;;16.60;10.20;;;;;;;9.75;86.91;99454.92;110855;1230;100420;-76
2022/09/29 08:31:02;;;;;;;19.00;10.80;;;;;;;9.64;86.55;99458.92;110689;1230;138559;-74
2022/09/29 08:33:28;;;;;;;20.10;12.50;;;;;;;9.57;86.42;99457.24;110861;1230;97742;-76
2022/09/29 08:35:57;;;;;;;20.70;10.20;;;;;;;9.61;86.44;99462.52;110591;1230;139141;-76
2022/09/29 08:38:24;;;;;;;23.40;13.10;;;;;;;9.67;86.55;99465.01;110869;1229;97715;-75
2022/09/29 08:40:50;;;;;;;22.10;12.80;;;;;;;9.74;86.46;99464.42;110863;1229;97633;-74
2022/09/29 08:43:25;;;;;;;17.00;9.60;;;;;;;9.84;86.41;99469.01;110735;1229;138789;-75
2022/09/29 08:46:10;;;;;;;15.00;9.50;;;;;;;9.79;85.75;99472.85;110824;1229;97595;-76
2022/09/29 08:48:42;;;;;;;17.70;9.50;;;;;;;9.78;85.82;99481.30;110763;1229;138519;-75
2022/09/29 08:51:22;;;;;;;14.70;9.00;;;;;;;9.89;85.74;99486.73;110882;1229;111728;-77
2022/09/29 08:53:49;;;;;;;20.00;10.30;;;;;;;9.96;85.35;99488.05;110642;1230;140159;-76
2022/09/29 08:56:17;;;;;;;22.40;12.70;;;;;;;10.02;85.42;99489.31;110857;1229;98389;-77
2022/09/29 08:58:42;;;;;;;19.40;10.60;;;;;;;10.11;85.47;99486.66;110854;1230;97656;-76
2022/09/29 09:01:37;;;;;;;18.90;11.70;;;;;;;10.22;85.36;99488.20;110759;1230;138781;-75
2022/09/29 09:04:28;;;;;;;20.50;11.70;;;;;;;10.30;84.50;99486.27;110837;1229;111187;-76
2022/09/29 09:07:14;;;;;;;16.20;10.60;;;;;;;10.28;84.72;99494.41;110623;1230;139196;-75
2022/09/29 09:09:56;;;;;;;18.50;11.00;;;;;;;10.32;84.73;99494.73;110865;1230;106352;-74
2022/09/29 09:12:53;;;;;;;20.50;12.10;;;;;;;10.35;84.67;99497.89;110805;1229;138875;-75
2022/09/29 09:15:47;;;;;;;21.00;12.00;;;;;;;10.37;84.53;99496.90;110745;1230;97745;-75
2022/09/29 09:18:33;;;;;;;20.80;12.90;;;;;;;10.34;84.18;99502.11;110576;1230;140239;-75
2022/09/29 09:21:17;;;;;;;18.90;11.00;;;;;;;10.30;83.88;99506.10;110749;1230;100023;-76
2022/09/29 09:23:54;;;;;;;19.10;11.30;;;;;;;10.30;84.11;99509.65;110779;1229;140501;-76
2022/09/29 09:26:31;;;;;;;19.90;11.90;;;;;;;10.33;84.07;99512.35;110908;1229;99049;-80
2022/09/29 09:29:04;;;;;;;20.00;11.20;;;;;;;10.30;83.83;99509.29;110849;1230;139493;-84
2022/09/29 09:31:40;;;;;;;16.80;10.40;;;;;;;10.32;83.95;99513.42;110928;1230;110802;-85
2022/09/29 09:34:28;;;;;;;20.70;11.50;;;;;;;10.34;83.74;99512.98;111028;1230;98580;-82
2022/09/29 09:37:20;;;;;;;21.50;11.90;;;;;;;10.37;83.66;99511.68;110803;1230;140654;-79
2022/09/29 09:39:58;;;;;;;17.30;9.70;;;;;;;10.43;83.78;99515.08;110958;1229;97820;-83
2022/09/29 09:42:32;;;;;;;17.60;10.40;;;;;;;10.44;83.40;99515.58;110836;1228;139178;-82
2022/09/29 09:45:15;;;;;;;19.80;12.40;;;;;;;10.43;83.19;99514.02;110913;1229;111548;-74
2022/09/29 09:47:55;;;;;;;16.20;10.20;;;;;;;10.43;83.16;99513.98;110906;1230;140101;-68
2022/09/29 09:50:24;;;;;;;17.50;10.00;;;;;;;10.49;83.24;99514.17;110975;1228;107690;-73
2022/09/29 09:52:58;;;;;;;15.50;9.90;;;;;;;10.61;83.13;99520.38;110925;1229;98971;-74
2022/09/29 09:55:25;;;;;;;15.60;9.80;;;;;;;10.73;83.10;99516.59;110938;1229;97721;-71
2022/09/29 09:58:09;;;;;;;15.80;10.00;;;;;;;10.86;83.08;99517.27;110991;1230;98135;-69
2022/09/29 10:00:44;;;;;;;14.20;9.10;;;;;;;10.85;82.60;99519.08;110841;1228;139931;-75
2022/09/29 10:03:11;;;;;;;13.10;8.70;;;;;;;10.77;82.50;99527.64;110932;1228;108219;-73
2022/09/29 10:05:40;;;;;;;15.00;10.00;;;;;;;10.72;82.44;99523.10;110823;1229;138864;-73
2022/09/29 10:08:11;;;;;;;16.10;10.20;;;;;;;10.75;82.19;99521.48;110961;1229;97709;-74
2022/09/29 10:10:40;;;;;;;15.10;8.90;;;;;;;10.80;82.19;99519.21;110955;1230;110589;-71
2022/09/29 10:13:10;;;;;;;15.40;10.20;;;;;;;10.90;82.11;99520.73;111088;1229;138875;-76
2022/09/29 10:15:58;;;;;;;17.00;9.20;;;;;;;11.05;82.30;99519.58;110889;1230;108836;-73
2022/09/29 10:18:31;;;;;;;14.40;9.20;;;;;;;11.26;82.28;99520.77;110859;1230;140227;-70
2022/09/29 10:20:56;;;;;;;13.90;9.20;;;;;;;11.34;82.05;99522.01;110950;1230;97625;-70
2022/09/29 10:23:30;;;;;;;12.80;8.40;;;;;;;11.42;82.00;99524.03;110865;1230;138848;-73
2022/09/29 10:26:05;;;;;;;12.40;8.00;;;;;;;11.51;81.81;99524.33;111000;1229;99637;-73
2022/09/29 10:28:42;;;;;;;13.30;8.30;;;;;;;11.59;81.58;99526.69;110942;1230;107683;-74
2022/09/29 10:31:32;;;;;;;13.30;8.40;;;;;;;11.62;81.38;99522.90;110870;1230;139058;-74
2022/09/29 10:34:14;;;;;;;12.20;8.40;;;;;;;11.65;81.24;99525.37;110957;1230;97746;-75
2022/09/29 10:36:52;;;;;;;12.00;7.60;;;;;;;11.70;81.02;99526.29;110851;1229;140796;-72
2022/09/29 10:39:40;;;;;;;11.80;7.90;;;;;;;11.73;80.85;99526.09;110912;1229;100930;-72
2022/09/29 10:42:26;;;;;;;18.00;9.20;;;;;;;11.85;80.84;99527.11;110851;1229;139202;-72
2022/09/29 10:45:12;;;;;;;12.00;7.70;;;;;;;11.82;80.26;99527.34;110994;1228;97727;-77
2022/09/29 10:47:39;;;;;;;12.10;7.90;;;;;;;11.87;79.98;99524.14;110858;1230;138623;-76
2022/09/29 10:50:16;;;;;;;16.60;8.70;;;;;;;12.05;80.27;99528.46;111144;1229;97713;-74
2022/09/29 10:52:46;;;;;;;11.40;7.90;;;;;;;12.22;80.07;99533.63;110881;1230;100357;-73
2022/09/29 10:55:47;;;;;;;11.70;8.60;;;;;;;12.28;79.83;99534.80;110884;1230;138918;-70
2022/09/29 10:58:32;;;;;;;12.90;7.60;;;;;;;12.32;79.78;99534.84;110977;1229;97577;-73
2022/09/29 11:01:06;;;;;;;12.60;7.10;;;;;;;12.39;79.71;99538.87;110859;1228;138011;-72
2022/09/29 11:03:33;;;;;;;8.80;7.00;;;;;;;12.44;79.35;99539.46;111018;1229;111294;-73
2022/09/29 11:06:02;;;;;;;9.60;6.60;;;;;;;12.54;79.36;99540.50;110950;1229;138497;-74
2022/09/29 11:08:29;;;;;;;10.70;7.20;;;;;;;12.76;79.35;99546.33;111059;1230;107790;-70
2022/09/29 11:11:19;;;;;;;12.40;7.10;;;;;;;12.98;79.23;99549.65;110882;1229;140069;-73
2022/09/29 11:13:45;;;;;;;11.60;7.20;;;;;;;13.15;78.81;99556.09;110969;1230;97730;-73
2022/09/29 11:16:24;;;;;;;12.10;7.70;;;;;;;13.24;78.58;99559.80;110929;1230;97743;-70
2022/09/29 11:18:53;;;;;;;12.50;7.80;;;;;;;13.39;78.32;99563.20;110865;1230;139265;-76
2022/09/29 11:21:18;;;;;;;16.70;7.40;;;;;;;13.45;77.51;99567.08;110992;1230;107603;-74
2022/09/29 11:23:53;;;;;;;12.10;7.60;;;;;;;13.44;77.53;99565.33;110826;1230;138005;-77
2022/09/29 11:26:45;;;;;;;13.10;8.40;;;;;;;13.40;77.22;99565.29;110973;1229;97866;-76
2022/09/29 11:29:31;;;;;;;12.10;8.00;;;;;;;13.49;77.20;99567.70;110855;1229;141436;-76
2022/09/29 11:32:13;;;;;;;13.30;8.00;;;;;;;13.53;76.76;99565.92;111017;1229;100417;-76